Time;durP1;ratioP1;P1;durP2;ratioP2;P2;SDS_P1;SDS_P2;PMS_P1;PMS_P2;Temp;Humidity;BMP_temperature;BMP_pressure;BME280_temperature;BME280_humidity;BME280_pressure;Samples;Min_cycle;Max_cycle;Signal;HPM_P1;HPM_P2
2021/12/07 00:00:39;;;;;;;3.20;2.60;;;;;;;;;;5027078;28;20038;-85
2021/12/07 00:03:05;;;;;;;5.80;3.30;;;;;;;;;;5026093;28;20366;-83
2021/12/07 00:05:31;;;;;;;5.50;2.78;;;;;;;;;;5024742;28;20041;-86
2021/12/07 00:07:57;;;;;;;3.67;2.60;;;;;;;;;;5024512;28;20046;-86
2021/12/07 00:10:23;;;;;;;4.30;2.67;;;;;;;;;;5027225;28;20046;-84
2021/12/07 00:12:49;;;;;;;3.53;2.42;;;;;;;;;;5026814;28;20048;-86
2021/12/07 00:15:17;;;;;;;3.95;2.45;;;;;;;;;;5010612;28;20038;-86
2021/12/07 00:17:44;;;;;;;3.90;2.38;;;;;;;;;;5011264;28;20045;-88
2021/12/07 00:20:11;;;;;;;3.60;2.25;;;;;;;;;;5027770;28;20117;-83
2021/12/07 00:22:38;;;;;;;4.15;2.03;;;;;;;;;;5022887;28;20038;-84
2021/12/07 00:25:05;;;;;;;4.05;2.40;;;;;;;;;;5023626;28;20045;-81
2021/12/07 00:27:31;;;;;;;2.50;1.88;;;;;;;;;;5009230;28;20115;-80
2021/12/07 00:29:57;;;;;;;5.70;1.95;;;;;;;;;;5009934;28;20034;-80
2021/12/07 00:32:29;;;;;;;3.63;2.30;;;;;;;;;;5026248;28;20077;-79
2021/12/07 00:35:14;;;;;;;3.25;1.92;;;;;;;;;;5027552;28;20466;-82
2021/12/07 00:37:41;;;;;;;3.83;2.13;;;;;;;;;;5022133;28;20099;-84
2021/12/07 00:40:07;;;;;;;3.22;2.00;;;;;;;;;;5004698;28;20049;-84
2021/12/07 00:42:33;;;;;;;3.17;1.98;;;;;;;;;;5004431;28;20062;-84
2021/12/07 00:45:00;;;;;;;3.72;2.20;;;;;;;;;;5020973;28;20100;-85
2021/12/07 00:47:26;;;;;;;2.90;1.80;;;;;;;;;;5004035;28;20454;-83
2021/12/07 00:49:52;;;;;;;3.70;1.75;;;;;;;;;;5005946;28;20049;-83
2021/12/07 00:52:18;;;;;;;3.85;1.92;;;;;;;;;;5004569;28;20049;-83
2021/12/07 00:54:44;;;;;;;3.40;2.08;;;;;;;;;;5019953;28;20386;-84
2021/12/07 00:57:10;;;;;;;3.40;2.00;;;;;;;;;;5023293;28;20038;-81
2021/12/07 00:59:36;;;;;;;4.85;2.03;;;;;;;;;;5024531;28;20084;-84
2021/12/07 01:02:02;;;;;;;3.78;2.35;;;;;;;;;;5021620;28;20045;-85
2021/12/07 01:04:29;;;;;;;4.15;2.38;;;;;;;;;;5021671;28;20473;-85
2021/12/07 01:09:30;;;;;;;3.65;2.42;;;;;;;;;;5022199;28;20057;-84
2021/12/07 01:25:47;;;;;;;3.55;2.53;;;;;;;;;;5019340;28;20507;-84
2021/12/07 01:28:23;;;;;;;3.92;2.67;;;;;;;;;;5018215;28;20042;-83
2021/12/07 01:36:22;;;;;;;5.22;3.72;;;;;;;;;;5021987;28;20343;-83
2021/12/07 01:59:53;;;;;;;5.60;3.65;;;;;;;;;;5021944;28;20033;-82
2021/12/07 02:02:19;;;;;;;5.30;3.35;;;;;;;;;;5026001;28;20481;-84
2021/12/07 02:04:45;;;;;;;4.85;3.70;;;;;;;;;;5007938;28;20121;-84
2021/12/07 02:07:11;;;;;;;5.60;3.95;;;;;;;;;;5007738;28;20059;-85
2021/12/07 02:09:39;;;;;;;5.65;3.90;;;;;;;;;;5010398;28;20335;-85
2021/12/07 02:12:06;;;;;;;6.40;4.40;;;;;;;;;;5006327;28;20042;-84
2021/12/07 02:14:32;;;;;;;5.72;4.28;;;;;;;;;;5004641;28;20129;-85
2021/12/07 02:17:02;;;;;;;7.30;5.05;;;;;;;;;;5021031;28;20085;-85
2021/12/07 02:19:28;;;;;;;5.85;4.35;;;;;;;;;;5004619;28;20520;-84
2021/12/07 02:21:54;;;;;;;5.65;4.22;;;;;;;;;;5023364;28;20069;-83
2021/12/07 02:24:20;;;;;;;5.50;4.50;;;;;;;;;;5013374;28;20038;-84
2021/12/07 02:26:47;;;;;;;6.75;4.28;;;;;;;;;;5026003;28;20176;-84
2021/12/07 02:29:13;;;;;;;7.07;5.25;;;;;;;;;;5014943;28;20084;-82
2021/12/07 02:31:39;;;;;;;5.85;4.68;;;;;;;;;;5032362;28;20040;-84
2021/12/07 02:34:05;;;;;;;6.38;4.97;;;;;;;;;;5006950;28;20061;-85
2021/12/07 02:36:32;;;;;;;7.13;5.55;;;;;;;;;;5006585;28;20351;-81
2021/12/07 02:38:58;;;;;;;8.25;5.50;;;;;;;;;;5005873;28;20096;-83
2021/12/07 02:41:24;;;;;;;7.30;5.32;;;;;;;;;;5005369;28;20072;-84
2021/12/07 02:43:50;;;;;;;9.60;5.57;;;;;;;;;;5023148;28;20076;-83
2021/12/07 02:46:16;;;;;;;9.55;5.70;;;;;;;;;;5019619;28;20417;-83
2021/12/07 02:48:43;;;;;;;9.60;6.63;;;;;;;;;;5019696;28;20048;-84
2021/12/07 02:51:09;;;;;;;8.50;6.20;;;;;;;;;;5020886;28;20034;-83
2021/12/07 02:53:35;;;;;;;9.30;6.05;;;;;;;;;;5018706;28;20033;-83
2021/12/07 02:56:02;;;;;;;9.85;7.10;;;;;;;;;;5002126;28;20092;-83
2021/12/07 02:58:28;;;;;;;12.18;7.22;;;;;;;;;;5021749;28;20054;-84
2021/12/07 03:01:21;;;;;;;10.20;7.60;;;;;;;;;;5020300;28;20117;-84
2021/12/07 03:03:59;;;;;;;9.15;7.05;;;;;;;;;;5019989;28;20069;-84
2021/12/07 03:06:40;;;;;;;9.98;8.38;;;;;;;;;;5023509;28;20041;-82
2021/12/07 03:09:41;;;;;;;11.43;8.38;;;;;;;;;;5009154;28;20152;-84
2021/12/07 03:28:43;;;;;;;19.63;14.35;;;;;;;;;;4996627;28;20057;-83
2021/12/07 03:31:09;;;;;;;23.67;15.60;;;;;;;;;;5020135;28;20053;-82
2021/12/07 03:33:35;;;;;;;27.83;17.70;;;;;;;;;;5003056;28;20042;-83
2021/12/07 03:36:01;;;;;;;26.10;17.42;;;;;;;;;;5004629;28;20042;-82
2021/12/07 03:38:27;;;;;;;30.00;20.15;;;;;;;;;;5002546;28;20343;-83
2021/12/07 03:40:53;;;;;;;33.88;22.13;;;;;;;;;;5019814;28;20052;-83
2021/12/07 03:43:19;;;;;;;32.30;22.50;;;;;;;;;;5002481;28;20068;-82
2021/12/07 03:45:46;;;;;;;33.75;24.85;;;;;;;;;;5018888;28;20128;-83
2021/12/07 03:48:12;;;;;;;37.67;25.50;;;;;;;;;;5003040;28;20473;-83
2021/12/07 03:50:38;;;;;;;38.50;25.70;;;;;;;;;;5019535;28;20155;-84
2021/12/07 03:53:04;;;;;;;43.45;26.35;;;;;;;;;;5002997;28;20050;-84
2021/12/07 03:55:30;;;;;;;38.03;26.33;;;;;;;;;;5022048;28;20038;-84
2021/12/07 03:57:56;;;;;;;35.30;27.13;;;;;;;;;;5024532;28;20418;-82
2021/12/07 04:00:24;;;;;;;39.28;26.92;;;;;;;;;;5003139;28;20041;-83
2021/12/07 04:02:52;;;;;;;44.17;25.50;;;;;;;;;;5003029;28;20042;-82
2021/12/07 04:05:19;;;;;;;44.47;26.63;;;;;;;;;;5019403;28;20038;-84
2021/12/07 04:07:45;;;;;;;39.85;26.70;;;;;;;;;;5005396;28;20026;-82
2021/12/07 04:10:12;;;;;;;36.80;26.15;;;;;;;;;;5003520;28;20038;-84
2021/12/07 04:12:38;;;;;;;36.00;26.25;;;;;;;;;;5012217;28;20077;-84
2021/12/07 04:15:05;;;;;;;38.22;26.42;;;;;;;;;;5020080;28;20069;-84
2021/12/07 04:17:31;;;;;;;38.97;26.58;;;;;;;;;;5019738;28;20119;-84
2021/12/07 04:19:57;;;;;;;40.03;24.88;;;;;;;;;;5019588;28;20043;-85
2021/12/07 04:22:23;;;;;;;37.80;25.05;;;;;;;;;;5020333;28;20413;-85
2021/12/07 04:24:49;;;;;;;36.70;23.70;;;;;;;;;;5019985;28;20045;-85
2021/12/07 04:27:14;;;;;;;46.67;23.50;;;;;;;;;;5003620;28;20367;-84
2021/12/07 04:29:41;;;;;;;33.25;21.58;;;;;;;;;;5003616;28;20030;-85
2021/12/07 04:32:07;;;;;;;37.00;22.42;;;;;;;;;;5004031;28;20048;-84
2021/12/07 04:34:33;;;;;;;38.47;23.38;;;;;;;;;;5019220;28;20108;-83
2021/12/07 04:36:59;;;;;;;42.30;23.83;;;;;;;;;;5003642;28;20049;-85
2021/12/07 04:39:25;;;;;;;35.90;22.67;;;;;;;;;;5004155;28;20038;-82
2021/12/07 04:41:52;;;;;;;38.25;23.23;;;;;;;;;;5021287;28;20076;-84
2021/12/07 04:44:21;;;;;;;42.35;23.40;;;;;;;;;;5002823;28;20042;-84
2021/12/07 05:00:09;;;;;;;48.22;28.02;;;;;;;;;;5017815;28;20589;-82
2021/12/07 05:02:38;;;;;;;57.33;29.20;;;;;;;;;;5000263;28;20044;-83
2021/12/07 05:05:04;;;;;;;50.63;30.23;;;;;;;;;;4999535;28;20053;-82
2021/12/07 05:07:37;;;;;;;45.58;29.17;;;;;;;;;;5017773;28;20038;-81
2021/12/07 05:10:25;;;;;;;49.75;29.48;;;;;;;;;;5004368;28;20046;-82
2021/12/07 05:15:30;;;;;;;66.10;34.55;;;;;;;;;;5019015;28;20038;-85
2021/12/07 05:18:22;;;;;;;56.42;34.30;;;;;;;;;;5011480;28;20088;-84
2021/12/07 05:39:41;;;;;;;78.97;40.33;;;;;;;;;;5017332;28;20029;-77
2021/12/07 05:42:07;;;;;;;68.35;37.45;;;;;;;;;;5019153;28;20045;-79
2021/12/07 05:44:33;;;;;;;69.00;36.40;;;;;;;;;;5019355;28;20045;-80
2021/12/07 05:46:59;;;;;;;73.43;36.10;;;;;;;;;;5019351;28;20038;-80
2021/12/07 05:49:25;;;;;;;66.25;33.78;;;;;;;;;;5020771;28;20073;-79
2021/12/07 05:51:51;;;;;;;72.93;34.88;;;;;;;;;;5020360;28;20042;-79
2021/12/07 05:54:17;;;;;;;62.55;34.33;;;;;;;;;;5018052;28;20056;-79
2021/12/07 05:56:43;;;;;;;61.70;33.85;;;;;;;;;;5016554;28;20038;-77
2021/12/07 05:59:09;;;;;;;62.35;34.03;;;;;;;;;;5017628;28;20064;-79
2021/12/07 06:01:35;;;;;;;73.72;35.25;;;;;;;;;;5015814;28;20069;-78
2021/12/07 06:04:01;;;;;;;64.32;34.35;;;;;;;;;;5016516;28;20103;-78
2021/12/07 06:06:27;;;;;;;67.68;33.05;;;;;;;;;;5020759;28;20115;-79
2021/12/07 06:08:53;;;;;;;63.45;32.78;;;;;;;;;;5019908;28;20053;-79
2021/12/07 06:11:21;;;;;;;64.25;30.58;;;;;;;;;;5020428;28;20049;-79
2021/12/07 06:13:47;;;;;;;62.83;29.85;;;;;;;;;;5021374;28;20141;-82
2021/12/07 06:16:15;;;;;;;60.53;30.75;;;;;;;;;;5021130;28;20073;-80
2021/12/07 06:18:42;;;;;;;61.97;29.15;;;;;;;;;;5007432;28;20134;-79
2021/12/07 06:21:08;;;;;;;56.47;29.52;;;;;;;;;;5024014;28;20058;-79
2021/12/07 06:23:34;;;;;;;57.60;29.10;;;;;;;;;;5032132;28;20010;-79
2021/12/07 06:26:00;;;;;;;51.67;28.50;;;;;;;;;;5024512;28;20050;-78
2021/12/07 06:28:26;;;;;;;52.60;27.85;;;;;;;;;;5035642;28;20029;-78
2021/12/07 06:30:52;;;;;;;55.30;28.35;;;;;;;;;;5036567;28;20034;-79
2021/12/07 06:33:19;;;;;;;60.03;28.40;;;;;;;;;;5029783;28;20045;-78
2021/12/07 06:35:46;;;;;;;55.13;27.60;;;;;;;;;;5004274;28;20109;-79
2021/12/07 06:38:11;;;;;;;55.78;27.65;;;;;;;;;;5020748;28;20045;-78
2021/12/07 06:40:38;;;;;;;55.15;26.75;;;;;;;;;;5005124;28;20041;-78
2021/12/07 06:43:03;;;;;;;46.00;26.77;;;;;;;;;;5004748;28;20049;-79
2021/12/07 06:45:30;;;;;;;57.55;27.80;;;;;;;;;;5021146;28;20446;-78
2021/12/07 06:47:56;;;;;;;48.88;26.25;;;;;;;;;;5020320;28;20042;-78
2021/12/07 06:50:22;;;;;;;56.90;26.02;;;;;;;;;;5020913;28;20362;-78
2021/12/07 06:52:48;;;;;;;53.83;25.10;;;;;;;;;;5019524;28;20042;-78
2021/12/07 06:55:14;;;;;;;56.15;26.65;;;;;;;;;;5020764;28;20038;-78
2021/12/07 06:57:40;;;;;;;48.85;24.55;;;;;;;;;;5019617;28;20157;-79
2021/12/07 07:00:07;;;;;;;51.22;24.23;;;;;;;;;;5020228;28;20358;-79
2021/12/07 07:02:33;;;;;;;42.03;22.63;;;;;;;;;;5019219;28;20413;-78
2021/12/07 07:04:59;;;;;;;42.97;22.58;;;;;;;;;;5018556;28;20045;-78
2021/12/07 07:07:25;;;;;;;51.58;21.95;;;;;;;;;;5019179;28;20351;-78
2021/12/07 07:09:51;;;;;;;42.33;20.80;;;;;;;;;;5019985;28;20446;-78
2021/12/07 07:12:17;;;;;;;39.58;20.15;;;;;;;;;;5001965;28;20045;-78
2021/12/07 07:14:43;;;;;;;51.17;20.58;;;;;;;;;;5017606;28;20121;-78
2021/12/07 07:17:09;;;;;;;40.30;19.58;;;;;;;;;;5018328;28;20053;-78
2021/12/07 07:19:35;;;;;;;42.03;20.38;;;;;;;;;;5017892;28;20038;-78
2021/12/07 07:22:02;;;;;;;41.40;19.70;;;;;;;;;;5017729;28;20064;-78
2021/12/07 07:24:31;;;;;;;39.38;19.45;;;;;;;;;;5025528;28;20137;-77
2021/12/07 07:26:58;;;;;;;47.90;21.08;;;;;;;;;;5024993;28;20125;-78
2021/12/07 07:29:24;;;;;;;47.10;19.33;;;;;;;;;;5024529;28;20042;-78
2021/12/07 07:31:50;;;;;;;48.20;20.67;;;;;;;;;;5019285;28;20057;-78
2021/12/07 07:34:16;;;;;;;40.15;20.35;;;;;;;;;;5022665;28;20464;-78
2021/12/07 07:36:42;;;;;;;38.72;18.58;;;;;;;;;;5026062;28;20037;-78
2021/12/07 07:39:08;;;;;;;36.50;18.88;;;;;;;;;;5024076;28;20042;-78
2021/12/07 07:41:34;;;;;;;39.03;19.10;;;;;;;;;;5001847;28;20059;-78
2021/12/07 07:44:00;;;;;;;37.10;18.17;;;;;;;;;;5001776;28;20042;-78
2021/12/07 07:46:26;;;;;;;34.78;18.63;;;;;;;;;;5003533;28;20500;-78
2021/12/07 07:48:52;;;;;;;37.92;18.15;;;;;;;;;;5002760;28;20065;-78
2021/12/07 07:51:18;;;;;;;35.92;17.25;;;;;;;;;;5018512;28;20117;-77
2021/12/07 07:53:45;;;;;;;37.85;17.35;;;;;;;;;;5018275;28;20136;-78
2021/12/07 07:56:11;;;;;;;38.53;16.65;;;;;;;;;;5018694;28;20072;-77
2021/12/07 07:58:37;;;;;;;37.28;16.58;;;;;;;;;;5018337;28;20038;-77
2021/12/07 08:01:04;;;;;;;35.53;16.45;;;;;;;;;;5017613;28;20100;-78
2021/12/07 08:03:30;;;;;;;38.38;17.15;;;;;;;;;;5017146;28;20052;-77
2021/12/07 08:05:56;;;;;;;43.60;16.30;;;;;;;;;;5016516;28;20038;-77
2021/12/07 08:08:22;;;;;;;33.33;15.85;;;;;;;;;;4999810;28;20064;-77
2021/12/07 08:10:48;;;;;;;28.65;14.65;;;;;;;;;;5024395;28;20441;-77
2021/12/07 08:13:14;;;;;;;35.28;15.93;;;;;;;;;;5035766;28;20044;-78
2021/12/07 08:15:42;;;;;;;33.95;15.40;;;;;;;;;;5020769;28;20447;-78
2021/12/07 08:18:09;;;;;;;33.28;15.02;;;;;;;;;;5018500;28;20084;-77
2021/12/07 08:20:35;;;;;;;30.05;14.93;;;;;;;;;;5017611;28;20061;-77
2021/12/07 08:23:04;;;;;;;34.22;16.00;;;;;;;;;;5019439;28;20516;-77
2021/12/07 08:25:33;;;;;;;33.22;15.23;;;;;;;;;;5018218;28;20053;-78
2021/12/07 08:28:00;;;;;;;36.00;15.68;;;;;;;;;;5017272;28;20034;-77
2021/12/07 08:30:26;;;;;;;36.92;16.02;;;;;;;;;;5020156;28;20029;-77
2021/12/07 08:32:52;;;;;;;44.28;16.77;;;;;;;;;;5015558;28;20049;-77
2021/12/07 08:35:18;;;;;;;37.42;16.20;;;;;;;;;;5015703;28;20037;-77
2021/12/07 08:37:46;;;;;;;40.25;16.80;;;;;;;;;;5016359;28;20041;-77
2021/12/07 08:40:12;;;;;;;39.00;16.58;;;;;;;;;;4998511;28;20045;-77
2021/12/07 08:42:38;;;;;;;40.13;16.17;;;;;;;;;;5016594;28;20045;-77
2021/12/07 08:45:05;;;;;;;37.30;16.98;;;;;;;;;;5017706;28;20049;-79
2021/12/07 08:47:31;;;;;;;37.17;16.80;;;;;;;;;;5020014;28;20053;-78
2021/12/07 08:49:57;;;;;;;39.05;17.35;;;;;;;;;;5003344;28;20049;-79
2021/12/07 08:52:24;;;;;;;39.13;18.13;;;;;;;;;;5021907;28;20167;-80
2021/12/07 09:00:01;;;;;;;42.45;20.52;;;;;;;;;;5030613;28;20030;-78
2021/12/07 09:02:28;;;;;;;40.97;20.35;;;;;;;;;;5030664;28;20068;-79
2021/12/07 09:04:54;;;;;;;43.25;20.27;;;;;;;;;;5005399;28;20050;-78
2021/12/07 09:07:21;;;;;;;41.55;19.60;;;;;;;;;;5009065;28;20049;-78
2021/12/07 09:09:50;;;;;;;41.70;20.85;;;;;;;;;;5028059;28;20037;-78
2021/12/07 09:12:17;;;;;;;43.88;21.77;;;;;;;;;;5027271;28;20073;-80
2021/12/07 09:14:43;;;;;;;36.80;20.65;;;;;;;;;;5028521;28;20042;-79
2021/12/07 09:17:10;;;;;;;40.22;20.73;;;;;;;;;;5025051;28;20064;-80
2021/12/07 09:19:36;;;;;;;40.30;20.40;;;;;;;;;;5020126;28;20038;-79
2021/12/07 09:22:02;;;;;;;39.33;19.38;;;;;;;;;;5019554;28;20045;-79
2021/12/07 09:24:28;;;;;;;41.88;18.92;;;;;;;;;;5019694;28;20049;-76
2021/12/07 09:26:54;;;;;;;42.00;19.42;;;;;;;;;;5018706;28;20038;-79
2021/12/07 09:29:20;;;;;;;34.88;17.20;;;;;;;;;;5018183;28;20045;-78
2021/12/07 09:31:46;;;;;;;45.05;17.50;;;;;;;;;;5016564;28;20050;-78
2021/12/07 09:34:12;;;;;;;39.20;17.15;;;;;;;;;;5018087;28;20394;-78
2021/12/07 09:36:39;;;;;;;43.25;17.33;;;;;;;;;;4998653;28;20042;-77
2021/12/07 09:39:06;;;;;;;39.92;16.00;;;;;;;;;;5015389;28;20042;-77
2021/12/07 09:41:32;;;;;;;31.67;14.90;;;;;;;;;;5015397;28;20057;-77
2021/12/07 09:43:58;;;;;;;39.80;14.02;;;;;;;;;;5014231;28;20462;-77
2021/12/07 09:46:24;;;;;;;30.58;13.70;;;;;;;;;;5015136;28;20060;-78
2021/12/07 09:48:50;;;;;;;31.55;13.77;;;;;;;;;;5028695;28;20034;-76
2021/12/07 09:51:17;;;;;;;30.20;13.73;;;;;;;;;;5028164;28;20111;-77
2021/12/07 09:53:47;;;;;;;31.25;14.02;;;;;;;;;;5003085;28;20422;-77
2021/12/07 09:56:13;;;;;;;31.10;14.32;;;;;;;;;;5018427;28;20048;-77
2021/12/07 09:58:39;;;;;;;41.85;15.85;;;;;;;;;;5018743;28;20087;-76
2021/12/07 10:01:07;;;;;;;29.83;15.00;;;;;;;;;;5018690;28;20456;-77
2021/12/07 10:03:33;;;;;;;30.98;14.15;;;;;;;;;;5017959;28;20045;-77
2021/12/07 10:05:59;;;;;;;28.23;15.20;;;;;;;;;;5018271;28;20037;-77
2021/12/07 10:08:25;;;;;;;30.25;15.45;;;;;;;;;;5017781;28;20506;-77
2021/12/07 10:10:55;;;;;;;36.33;13.75;;;;;;;;;;5019005;28;20192;-77
2021/12/07 10:13:21;;;;;;;30.63;13.85;;;;;;;;;;5001285;28;20049;-77
2021/12/07 10:15:47;;;;;;;29.60;13.07;;;;;;;;;;5019201;28;20042;-77
2021/12/07 10:18:14;;;;;;;31.95;13.93;;;;;;;;;;5018129;28;20065;-76
2021/12/07 10:20:43;;;;;;;34.42;13.15;;;;;;;;;;5018916;28;20084;-77
2021/12/07 10:23:18;;;;;;;27.60;12.70;;;;;;;;;;5017908;28;20049;-77
2021/12/07 10:25:46;;;;;;;26.50;12.38;;;;;;;;;;5017827;28;20041;-77
2021/12/07 10:28:26;;;;;;;24.77;13.60;;;;;;;;;;5017150;28;20442;-78
2021/12/07 10:30:52;;;;;;;29.23;13.88;;;;;;;;;;5018332;28;20208;-77
2021/12/07 10:33:27;;;;;;;32.85;13.32;;;;;;;;;;5016828;28;20546;-77
2021/12/07 10:35:56;;;;;;;32.28;13.85;;;;;;;;;;5019371;28;20358;-77
2021/12/07 10:38:22;;;;;;;28.35;14.20;;;;;;;;;;5027902;28;20052;-75
2021/12/07 10:40:57;;;;;;;25.80;13.23;;;;;;;;;;5020132;28;20390;-76
2021/12/07 10:43:59;;;;;;;39.75;14.80;;;;;;;;;;5019258;28;20049;-78
2021/12/07 10:46:29;;;;;;;30.15;14.02;;;;;;;;;;4998617;28;20117;-77
2021/12/07 10:49:15;;;;;;;35.05;14.43;;;;;;;;;;5016618;28;20045;-77
2021/12/07 10:51:42;;;;;;;30.65;14.80;;;;;;;;;;5020465;28;20073;-77
2021/12/07 10:54:08;;;;;;;31.40;14.60;;;;;;;;;;5017711;28;20049;-76
2021/12/07 10:56:35;;;;;;;28.40;13.60;;;;;;;;;;5016908;28;20057;-77
2021/12/07 10:59:02;;;;;;;32.28;14.20;;;;;;;;;;5017088;28;20034;-77
2021/12/07 11:01:47;;;;;;;37.83;15.45;;;;;;;;;;5017719;28;20037;-77
2021/12/07 11:04:25;;;;;;;28.95;14.45;;;;;;;;;;5018012;28;20061;-77
2021/12/07 11:07:09;;;;;;;35.50;15.57;;;;;;;;;;5018953;28;20472;-77
2021/12/07 11:09:43;;;;;;;30.45;15.20;;;;;;;;;;5018182;28;20112;-77
2021/12/07 11:12:10;;;;;;;41.30;15.30;;;;;;;;;;5017335;28;20048;-77
2021/12/07 11:14:57;;;;;;;35.95;15.68;;;;;;;;;;5017883;28;20049;-77
2021/12/07 11:17:28;;;;;;;33.85;18.00;;;;;;;;;;5001535;28;20521;-78
2021/12/07 11:19:54;;;;;;;39.17;16.80;;;;;;;;;;5017675;28;20065;-80
2021/12/07 11:22:21;;;;;;;32.90;16.65;;;;;;;;;;5019832;28;20113;-82
2021/12/07 11:24:48;;;;;;;35.30;16.75;;;;;;;;;;5024100;28;20052;-80
2021/12/07 11:30:00;;;;;;;42.50;17.77;;;;;;;;;;5018042;28;20042;-77
2021/12/07 11:32:26;;;;;;;42.85;18.38;;;;;;;;;;5019485;28;20057;-77
2021/12/07 11:34:52;;;;;;;37.72;17.92;;;;;;;;;;5016234;28;20041;-78
2021/12/07 11:37:22;;;;;;;34.50;17.05;;;;;;;;;;5017577;28;20070;-77
2021/12/07 11:39:59;;;;;;;34.33;16.25;;;;;;;;;;5018665;28;20038;-78
2021/12/07 11:42:30;;;;;;;32.25;15.85;;;;;;;;;;5003688;28;20100;-77
2021/12/07 11:45:19;;;;;;;33.33;15.80;;;;;;;;;;5019040;28;20442;-77
2021/12/07 11:48:11;;;;;;;39.22;17.45;;;;;;;;;;5015405;28;20064;-77
2021/12/07 11:50:41;;;;;;;34.40;16.38;;;;;;;;;;5022126;28;20517;-78
2021/12/07 11:53:08;;;;;;;46.00;17.52;;;;;;;;;;5021366;28;20046;-77
2021/12/07 11:55:35;;;;;;;34.22;16.63;;;;;;;;;;5023557;28;20052;-77
2021/12/07 11:58:01;;;;;;;37.97;16.20;;;;;;;;;;5021919;28;20045;-77
2021/12/07 12:00:34;;;;;;;40.25;16.13;;;;;;;;;;5016290;28;20450;-76
2021/12/07 12:03:00;;;;;;;43.53;15.60;;;;;;;;;;5019539;28;20369;-80
2021/12/07 12:05:26;;;;;;;34.58;16.70;;;;;;;;;;5020801;28;20046;-79
2021/12/07 12:07:52;;;;;;;28.27;14.77;;;;;;;;;;5006960;28;20037;-82
2021/12/07 12:10:18;;;;;;;39.22;16.00;;;;;;;;;;5006440;28;20046;-81
2021/12/07 12:13:05;;;;;;;30.65;15.85;;;;;;;;;;5022831;28;20530;-82
2021/12/07 12:15:50;;;;;;;47.65;16.70;;;;;;;;;;5020488;28;20038;-81
2021/12/07 12:18:36;;;;;;;36.28;14.10;;;;;;;;;;5022847;28;20062;-82
2021/12/07 12:21:07;;;;;;;30.25;14.65;;;;;;;;;;5022814;28;20065;-81
2021/12/07 12:23:48;;;;;;;26.65;13.05;;;;;;;;;;5005132;28;20049;-81
2021/12/07 12:26:17;;;;;;;32.75;12.90;;;;;;;;;;5023269;28;20040;-82
2021/12/07 12:28:47;;;;;;;20.38;10.10;;;;;;;;;;5022615;28;20069;-81
2021/12/07 12:31:13;;;;;;;22.30;9.25;;;;;;;;;;5005787;28;20038;-81
2021/12/07 12:33:47;;;;;;;25.88;9.35;;;;;;;;;;5008275;28;20046;-81
2021/12/07 12:36:13;;;;;;;26.13;9.52;;;;;;;;;;5024094;28;20042;-83
2021/12/07 12:38:39;;;;;;;18.98;7.50;;;;;;;;;;5022865;28;20458;-83
2021/12/07 12:41:08;;;;;;;28.50;8.93;;;;;;;;;;5022925;28;20053;-84
2021/12/07 12:43:35;;;;;;;27.98;7.90;;;;;;;;;;5022412;28;20065;-83
2021/12/07 12:46:02;;;;;;;18.48;7.78;;;;;;;;;;5006044;28;20374;-82
2021/12/07 12:48:28;;;;;;;17.90;6.80;;;;;;;;;;5022073;28;20113;-82
2021/12/07 12:50:54;;;;;;;20.63;6.88;;;;;;;;;;5021623;28;20090;-82
2021/12/07 12:53:24;;;;;;;21.30;7.05;;;;;;;;;;5022864;28;20046;-80
2021/12/07 12:55:51;;;;;;;13.98;6.53;;;;;;;;;;5022325;28;20038;-78
2021/12/07 12:58:19;;;;;;;28.20;6.93;;;;;;;;;;5018781;28;20065;-79
2021/12/07 13:01:02;;;;;;;16.27;5.95;;;;;;;;;;5017833;28;20034;-78
2021/12/07 13:03:38;;;;;;;14.57;5.85;;;;;;;;;;5019337;28;20119;-79
2021/12/07 13:06:04;;;;;;;22.50;6.32;;;;;;;;;;5003367;28;20041;-78
2021/12/07 13:08:30;;;;;;;27.40;9.23;;;;;;;;;;5003217;28;20472;-81
2021/12/07 13:11:00;;;;;;;18.85;5.40;;;;;;;;;;5005146;28;20034;-81
2021/12/07 13:13:33;;;;;;;31.90;6.15;;;;;;;;;;5021658;28;20126;-81
2021/12/07 13:15:59;;;;;;;;;;;;;;;;;;5021565;28;20137;-81
2021/12/07 13:18:31;;;;;;;15.80;4.60;;;;;;;;;;5021050;28;19998;-81
2021/12/07 13:20:57;;;;;;;17.92;4.75;;;;;;;;;;5004528;28;20038;-81
2021/12/07 13:23:28;;;;;;;12.80;4.88;;;;;;;;;;5004465;28;20415;-82
2021/12/07 13:25:54;;;;;;;16.92;4.72;;;;;;;;;;5006761;28;20044;-80
2021/12/07 13:28:22;;;;;;;14.32;5.00;;;;;;;;;;5006841;28;20053;-81
2021/12/07 13:30:58;;;;;;;20.48;5.20;;;;;;;;;;5022184;28;20080;-80
2021/12/07 13:33:24;;;;;;;19.23;5.50;;;;;;;;;;5004513;28;20159;-81
2021/12/07 13:35:51;;;;;;;18.73;5.28;;;;;;;;;;5020833;28;20060;-80
2021/12/07 13:38:27;;;;;;;14.77;5.20;;;;;;;;;;5004915;28;20457;-80
2021/12/07 13:41:13;;;;;;;18.02;5.35;;;;;;;;;;5021974;28;20041;-81
2021/12/07 13:43:39;;;;;;;18.80;5.28;;;;;;;;;;5021257;28;20249;-81
2021/12/07 13:46:08;;;;;;;23.70;6.10;;;;;;;;;;5021306;28;20049;-81
2021/12/07 13:48:34;;;;;;;21.25;4.90;;;;;;;;;;5021099;28;20050;-80
2021/12/07 13:51:00;;;;;;;14.82;4.60;;;;;;;;;;5004500;28;20041;-81
2021/12/07 13:53:26;;;;;;;14.13;4.40;;;;;;;;;;5020233;28;20038;-77
2021/12/07 13:55:52;;;;;;;16.52;4.55;;;;;;;;;;5018618;28;20458;-77
2021/12/07 13:58:18;;;;;;;15.40;4.28;;;;;;;;;;5019617;28;20033;-77
2021/12/07 14:00:44;;;;;;;16.45;4.55;;;;;;;;;;5021059;28;20046;-77
2021/12/07 14:03:12;;;;;;;17.98;4.00;;;;;;;;;;5018772;28;20038;-77
2021/12/07 14:05:42;;;;;;;17.65;4.05;;;;;;;;;;5002417;28;20041;-77
2021/12/07 14:08:09;;;;;;;13.05;3.65;;;;;;;;;;5020838;28;20446;-77
2021/12/07 14:10:51;;;;;;;16.02;3.60;;;;;;;;;;5019792;28;20042;-80
2021/12/07 14:13:17;;;;;;;15.05;3.50;;;;;;;;;;5004455;28;20044;-80
2021/12/07 14:15:45;;;;;;;12.77;3.78;;;;;;;;;;5020166;28;20438;-80
2021/12/07 14:18:15;;;;;;;9.55;4.00;;;;;;;;;;5004516;28;20065;-80
2021/12/07 14:20:44;;;;;;;15.77;3.95;;;;;;;;;;5020806;28;20103;-80
2021/12/07 14:23:19;;;;;;;17.80;4.28;;;;;;;;;;5021660;28;20037;-80
2021/12/07 14:25:49;;;;;;;7.75;2.95;;;;;;;;;;5023089;28;20137;-80
2021/12/07 14:28:28;;;;;;;15.90;4.03;;;;;;;;;;5019848;28;20049;-80
2021/12/07 14:31:06;;;;;;;14.20;3.20;;;;;;;;;;5021458;28;20080;-80
2021/12/07 14:33:35;;;;;;;13.43;3.50;;;;;;;;;;5020540;28;20038;-79
2021/12/07 14:36:01;;;;;;;9.80;3.10;;;;;;;;;;5004060;28;20113;-80
2021/12/07 14:38:30;;;;;;;17.50;3.40;;;;;;;;;;5019152;28;20081;-79
2021/12/07 14:40:56;;;;;;;9.00;3.00;;;;;;;;;;5020245;28;20075;-79
2021/12/07 14:43:22;;;;;;;8.32;3.38;;;;;;;;;;5021293;28;20141;-80
2021/12/07 14:45:48;;;;;;;8.38;2.83;;;;;;;;;;5003500;28;20052;-77
2021/12/07 14:48:14;;;;;;;10.32;2.50;;;;;;;;;;5016680;28;20045;-76
2021/12/07 14:50:40;;;;;;;8.85;3.20;;;;;;;;;;5017754;28;20038;-76
2021/12/07 14:53:06;;;;;;;10.50;3.40;;;;;;;;;;5018425;28;20366;-76
2021/12/07 14:55:36;;;;;;;10.73;3.97;;;;;;;;;;5017384;28;20046;-76
2021/12/07 14:58:02;;;;;;;11.77;3.50;;;;;;;;;;5017059;28;20045;-76
2021/12/07 15:00:28;;;;;;;13.45;3.72;;;;;;;;;;5019740;28;20037;-78
2021/12/07 15:02:54;;;;;;;11.43;3.25;;;;;;;;;;5000465;28;20120;-76
2021/12/07 15:05:20;;;;;;;7.97;2.92;;;;;;;;;;5016616;28;20037;-76
2021/12/07 15:07:46;;;;;;;10.13;3.58;;;;;;;;;;5019508;28;20381;-79
2021/12/07 15:10:14;;;;;;;8.57;3.40;;;;;;;;;;5019117;28;20044;-80
2021/12/07 15:12:41;;;;;;;11.35;3.35;;;;;;;;;;5019242;28;20517;-79
2021/12/07 15:15:07;;;;;;;9.48;3.22;;;;;;;;;;5019705;28;20461;-79
2021/12/07 15:17:33;;;;;;;9.98;4.10;;;;;;;;;;5019155;28;20140;-81
2021/12/07 15:20:00;;;;;;;13.35;3.10;;;;;;;;;;5001786;28;20382;-77
2021/12/07 15:22:26;;;;;;;9.57;3.95;;;;;;;;;;5000215;28;20115;-76
2021/12/07 15:24:52;;;;;;;21.48;5.00;;;;;;;;;;5000058;28;20109;-76
2021/12/07 15:27:20;;;;;;;16.73;4.82;;;;;;;;;;5018790;28;20076;-76
2021/12/07 15:29:46;;;;;;;14.32;4.30;;;;;;;;;;5019351;28;20049;-77
2021/12/07 15:32:12;;;;;;;16.52;6.13;;;;;;;;;;5019122;28;20052;-77
2021/12/07 15:34:39;;;;;;;19.73;5.05;;;;;;;;;;5019318;28;20041;-76
2021/12/07 15:37:16;;;;;;;9.77;4.50;;;;;;;;;;5021887;28;20050;-78
2021/12/07 15:39:43;;;;;;;17.38;7.45;;;;;;;;;;5018442;28;20042;-78
2021/12/07 15:42:14;;;;;;;11.23;4.18;;;;;;;;;;5004236;28;20038;-79
2021/12/07 15:44:41;;;;;;;15.10;4.88;;;;;;;;;;5019490;28;20057;-78
2021/12/07 15:47:11;;;;;;;10.15;4.57;;;;;;;;;;5020323;28;20046;-78
2021/12/07 15:49:41;;;;;;;10.77;4.22;;;;;;;;;;5021347;28;20041;-77
2021/12/07 15:52:08;;;;;;;8.45;3.50;;;;;;;;;;5023758;28;20052;-78
2021/12/07 15:54:35;;;;;;;11.88;3.25;;;;;;;;;;5018331;28;20378;-77
2021/12/07 15:57:03;;;;;;;19.00;3.75;;;;;;;;;;5021915;28;20030;-77
2021/12/07 15:59:29;;;;;;;11.48;2.92;;;;;;;;;;5022475;28;20066;-78
2021/12/07 16:01:56;;;;;;;13.00;3.90;;;;;;;;;;5021455;28;20120;-77
2021/12/07 16:04:35;;;;;;;11.18;3.92;;;;;;;;;;5020050;28;20041;-77
2021/12/07 16:07:05;;;;;;;13.27;4.22;;;;;;;;;;5018000;28;20049;-79
2021/12/07 16:09:31;;;;;;;8.63;3.15;;;;;;;;;;5025672;28;20105;-80
2021/12/07 16:12:10;;;;;;;13.27;3.25;;;;;;;;;;5024915;28;20052;-80
2021/12/07 16:14:36;;;;;;;9.65;3.28;;;;;;;;;;5018596;28;20049;-80